Time;durP1;ratioP1;P1;durP2;ratioP2;P2;SDS_P1;SDS_P2;PMS_P1;PMS_P2;Temp;Humidity;BMP_temperature;BMP_pressure;BME280_temperature;BME280_humidity;BME280_pressure;Samples;Min_cycle;Max_cycle;Signal;HPM_P1;HPM_P2
2021/09/13 00:01:31;;;;;;;6.20;5.73;;;14.60;99.90;;;;;;5072582;28;20268;-80
2021/09/13 00:04:00;;;;;;;5.97;5.50;;;14.70;99.90;;;;;;5071198;28;20776;-80
2021/09/13 00:06:26;;;;;;;7.10;6.40;;;14.80;99.90;;;;;;5071605;28;20182;-79
2021/09/13 00:08:51;;;;;;;5.60;5.20;;;14.70;99.90;;;;;;5070736;28;20447;-79
2021/09/13 00:11:17;;;;;;;6.50;5.63;;;14.70;99.90;;;;;;5059522;28;20190;-80
2021/09/13 00:13:42;;;;;;;5.87;5.27;;;14.70;99.90;;;;;;5051109;28;20179;-79
2021/09/13 00:16:08;;;;;;;5.00;4.43;;;14.60;99.90;;;;;;5049353;28;20221;-79
2021/09/13 00:18:35;;;;;;;5.90;5.40;;;14.70;99.90;;;;;;5052828;28;20214;-78
2021/09/13 00:21:01;;;;;;;5.53;5.03;;;14.60;99.90;;;;;;5068951;28;20182;-79
2021/09/13 00:23:27;;;;;;;5.70;5.20;;;14.80;99.90;;;;;;5072183;28;20794;-79
2021/09/13 00:25:52;;;;;;;5.53;5.03;;;14.80;99.90;;;;;;5071472;28;20280;-78
2021/09/13 00:28:18;;;;;;;5.77;5.30;;;14.80;99.90;;;;;;5071030;28;20186;-82
2021/09/13 00:30:43;;;;;;;6.10;5.60;;;14.60;99.90;;;;;;5072161;28;20190;-78
2021/09/13 00:33:09;;;;;;;5.50;5.00;;;14.90;99.90;;;;;;5072883;28;20182;-80
2021/09/13 00:35:34;;;;;;;5.23;4.73;;;14.80;99.90;;;;;;5070697;28;20616;-78
2021/09/13 00:38:00;;;;;;;5.30;4.90;;;14.70;99.90;;;;;;5069975;28;20201;-79
2021/09/13 00:40:26;;;;;;;5.63;5.13;;;14.70;99.90;;;;;;5069262;28;20228;-80
2021/09/13 00:43:01;;;;;;;4.90;4.50;;;14.90;99.90;;;;;;5072127;28;20680;-80
2021/09/13 00:45:26;;;;;;;5.73;5.23;;;14.80;99.90;;;;;;5072446;28;20247;-80
2021/09/13 00:47:52;;;;;;;6.00;5.20;;;14.90;99.90;;;;;;5069243;28;20498;-79
2021/09/13 00:50:18;;;;;;;5.80;5.30;;;14.80;99.90;;;;;;5068324;28;20186;-79
2021/09/13 00:52:50;;;;;;;5.63;5.23;;;14.90;99.90;;;;;;5089334;28;20196;-79
2021/09/13 00:55:15;;;;;;;5.30;4.90;;;14.80;99.90;;;;;;5092429;28;20196;-79
2021/09/13 00:57:41;;;;;;;5.07;4.67;;;14.90;99.90;;;;;;5091392;28;20431;-80
2021/09/13 01:00:07;;;;;;;5.53;5.07;;;14.90;99.90;;;;;;5070434;28;20268;-79
2021/09/13 01:02:33;;;;;;;5.23;4.80;;;14.90;99.90;;;;;;5062103;28;20189;-79
2021/09/13 01:04:58;;;;;;;5.57;5.17;;;15.00;99.90;;;;;;5068842;28;20397;-80
2021/09/13 01:07:24;;;;;;;6.50;5.47;;;15.00;99.90;;;;;;5068834;28;20182;-79
2021/09/13 01:10:06;;;;;;;6.40;5.60;;;14.80;99.90;;;;;;5071781;28;20572;-79
2021/09/13 01:12:32;;;;;;;5.37;4.97;;;14.80;99.90;;;;;;5072199;28;20182;-78
2021/09/13 01:14:58;;;;;;;6.10;5.00;;;14.80;99.90;;;;;;5068793;28;21471;-80
2021/09/13 01:17:23;;;;;;;5.53;5.07;;;15.10;99.90;;;;;;5069401;28;21070;-79
2021/09/13 01:19:49;;;;;;;5.60;5.10;;;14.90;99.90;;;;;;5068396;28;20577;-78
2021/09/13 01:22:18;;;;;;;6.00;4.97;;;14.90;99.90;;;;;;5070729;28;20192;-79
2021/09/13 01:24:43;;;;;;;5.37;4.97;;;15.00;99.90;;;;;;5070634;28;20230;-78
2021/09/13 01:27:11;;;;;;;4.80;4.40;;;15.00;99.90;;;;;;5071997;28;20429;-78
2021/09/13 01:29:38;;;;;;;5.50;5.00;;;14.60;99.90;;;;;;5069453;28;20529;-78
2021/09/13 01:32:04;;;;;;;6.00;5.40;;;14.60;99.90;;;;;;5068819;28;20424;-79
2021/09/13 01:34:38;;;;;;;5.17;4.70;;;14.70;99.90;;;;;;5068554;28;20436;-79
2021/09/13 01:37:03;;;;;;;5.30;4.90;;;14.80;99.90;;;;;;5069024;28;20479;-79
2021/09/13 01:39:36;;;;;;;6.70;5.30;;;14.30;99.90;;;;;;5069805;28;20435;-78
2021/09/13 01:42:02;;;;;;;5.17;4.77;;;14.40;99.90;;;;;;5067679;28;20204;-81
2021/09/13 01:44:34;;;;;;;5.20;4.70;;;14.30;99.90;;;;;;5068946;28;20464;-79
2021/09/13 01:47:30;;;;;;;5.20;4.70;;;14.10;99.90;;;;;;5068666;28;20431;-79
2021/09/13 01:49:55;;;;;;;5.47;5.03;;;14.30;99.90;;;;;;5071091;28;20427;-78
2021/09/13 01:52:35;;;;;;;5.50;5.10;;;13.90;99.90;;;;;;5068774;28;20927;-79
2021/09/13 01:55:00;;;;;;;4.87;4.47;;;14.20;99.90;;;;;;5059851;28;20276;-79
2021/09/13 01:57:46;;;;;;;5.10;4.70;;;14.00;99.90;;;;;;5070331;28;20563;-79
2021/09/13 02:00:18;;;;;;;5.30;4.80;;;14.20;99.90;;;;;;5070990;28;20169;-79
2021/09/13 02:02:44;;;;;;;5.30;4.90;;;13.70;99.90;;;;;;5069402;28;20861;-79
2021/09/13 02:05:10;;;;;;;5.37;4.87;;;13.90;99.90;;;;;;5068272;28;20515;-78
2021/09/13 02:07:35;;;;;;;5.63;5.13;;;14.00;99.90;;;;;;5069050;28;20717;-78
2021/09/13 02:10:01;;;;;;;5.77;5.27;;;14.00;99.90;;;;;;5070884;28;20424;-80
2021/09/13 02:12:27;;;;;;;5.73;5.23;;;13.50;99.90;;;;;;5069845;28;20185;-78
2021/09/13 02:14:52;;;;;;;4.77;4.37;;;13.50;99.90;;;;;;5067747;28;20420;-78
2021/09/13 02:17:20;;;;;;;5.07;4.67;;;13.80;99.90;;;;;;5069177;28;20218;-79
2021/09/13 02:20:05;;;;;;;5.97;5.47;;;13.70;99.90;;;;;;5069738;28;20219;-78
2021/09/13 02:22:30;;;;;;;5.10;4.80;;;13.70;99.90;;;;;;5068978;28;20463;-78
2021/09/13 02:24:56;;;;;;;5.33;4.77;;;13.70;99.90;;;;;;5065779;28;20412;-77
2021/09/13 02:27:21;;;;;;;6.67;6.07;;;13.90;99.90;;;;;;5049203;28;20240;-78
2021/09/13 02:29:47;;;;;;;5.47;4.97;;;13.60;99.90;;;;;;5049970;28;20234;-79
2021/09/13 02:32:12;;;;;;;5.17;4.77;;;13.80;99.90;;;;;;5070728;28;20182;-77
2021/09/13 02:34:38;;;;;;;5.43;4.90;;;13.70;99.90;;;;;;5074172;28;20190;-78
2021/09/13 02:37:03;;;;;;;5.40;4.90;;;13.70;99.90;;;;;;5070465;28;20604;-77
2021/09/13 02:39:29;;;;;;;5.33;4.83;;;13.70;99.90;;;;;;5071024;28;20185;-78
2021/09/13 02:41:54;;;;;;;5.20;4.80;;;13.70;99.90;;;;;;5069037;28;20525;-78
2021/09/13 02:44:23;;;;;;;7.23;5.03;;;13.70;99.90;;;;;;5071728;28;20232;-78
2021/09/13 02:46:48;;;;;;;5.23;4.80;;;13.80;99.90;;;;;;5072556;28;20300;-77
2021/09/13 02:49:14;;;;;;;5.50;5.00;;;13.70;99.90;;;;;;5071465;28;20934;-76
2021/09/13 02:51:39;;;;;;;6.03;5.23;;;13.90;99.90;;;;;;5070439;28;20200;-77
2021/09/13 02:54:06;;;;;;;5.80;5.20;;;14.00;99.90;;;;;;5071433;28;20644;-77
2021/09/13 02:56:32;;;;;;;6.23;5.63;;;14.00;99.90;;;;;;5073362;28;20715;-77
2021/09/13 02:59:01;;;;;;;5.70;5.20;;;13.90;99.90;;;;;;5072313;28;20424;-78
2021/09/13 03:01:27;;;;;;;5.20;4.80;;;13.70;99.90;;;;;;5072372;28;20735;-76
2021/09/13 03:03:52;;;;;;;5.77;5.17;;;13.70;99.90;;;;;;5070724;28;20475;-78
2021/09/13 03:06:18;;;;;;;5.43;4.93;;;13.60;99.90;;;;;;5071972;28;20268;-77
2021/09/13 03:08:43;;;;;;;5.47;5.07;;;13.60;99.90;;;;;;5071954;28;20220;-77
2021/09/13 03:11:09;;;;;;;5.57;5.17;;;13.50;99.90;;;;;;5072873;28;20220;-78
2021/09/13 03:13:34;;;;;;;4.90;4.50;;;13.60;99.90;;;;;;5070909;28;20193;-78
2021/09/13 03:16:00;;;;;;;4.80;4.50;;;13.50;99.90;;;;;;5070052;28;20297;-78
2021/09/13 03:18:26;;;;;;;5.87;5.30;;;13.50;99.90;;;;;;5072552;28;20205;-79
2021/09/13 03:20:51;;;;;;;5.30;4.90;;;13.30;99.90;;;;;;5072067;28;20182;-78
2021/09/13 03:23:17;;;;;;;5.10;4.70;;;13.70;99.90;;;;;;5071575;28;20194;-77
2021/09/13 03:25:42;;;;;;;5.43;4.90;;;13.20;99.90;;;;;;5070344;28;20185;-78
2021/09/13 03:28:08;;;;;;;5.20;4.70;;;13.30;99.90;;;;;;5071790;28;20258;-77
2021/09/13 03:30:33;;;;;;;5.30;4.80;;;13.20;99.90;;;;;;5072769;28;20205;-78
2021/09/13 03:32:59;;;;;;;5.10;4.70;;;13.10;99.90;;;;;;5072161;28;20309;-78
2021/09/13 03:35:24;;;;;;;5.30;4.80;;;13.30;99.90;;;;;;5070861;28;20192;-77
2021/09/13 03:37:50;;;;;;;5.13;4.73;;;13.20;99.90;;;;;;5070574;28;20182;-77
2021/09/13 03:40:15;;;;;;;6.33;5.73;;;13.00;99.90;;;;;;5070018;28;20545;-78
2021/09/13 03:42:41;;;;;;;5.80;5.30;;;13.10;99.90;;;;;;5071142;28;20696;-77
2021/09/13 03:45:07;;;;;;;5.57;5.07;;;13.00;99.90;;;;;;5057107;28;20257;-77
2021/09/13 03:47:32;;;;;;;5.67;5.17;;;13.00;99.90;;;;;;5039044;28;20951;-78
2021/09/13 03:49:58;;;;;;;5.70;5.20;;;13.10;99.90;;;;;;5040069;28;20455;-78
2021/09/13 03:52:24;;;;;;;5.10;4.60;;;13.00;99.90;;;;;;5049331;28;20642;-79
2021/09/13 03:54:49;;;;;;;7.53;5.77;;;13.20;99.90;;;;;;5050803;28;20273;-77
2021/09/13 03:57:15;;;;;;;5.70;5.20;;;13.30;99.90;;;;;;5050341;28;20210;-76
2021/09/13 03:59:40;;;;;;;5.97;5.47;;;13.10;99.90;;;;;;5050206;28;20182;-77
2021/09/13 04:02:06;;;;;;;6.87;5.60;;;13.10;99.90;;;;;;5048142;28;20273;-79
2021/09/13 04:04:32;;;;;;;6.30;5.70;;;13.20;99.90;;;;;;5050007;28;20193;-77
2021/09/13 04:09:46;;;;;;;5.20;4.80;;;13.30;99.90;;;;;;5046729;28;20429;-78
2021/09/13 04:12:12;;;;;;;5.67;5.23;;;13.40;99.90;;;;;;5047501;28;20445;-75
2021/09/13 04:14:38;;;;;;;5.33;4.90;;;13.20;99.90;;;;;;5049199;28;20436;-81
2021/09/13 04:17:03;;;;;;;5.07;4.60;;;13.10;99.90;;;;;;5049024;28;20229;-77
2021/09/13 04:19:29;;;;;;;5.93;4.80;;;13.20;99.90;;;;;;5047300;28;20237;-76
2021/09/13 04:21:54;;;;;;;4.77;4.37;;;13.40;99.90;;;;;;5045965;28;20718;-76
2021/09/13 04:24:20;;;;;;;5.40;5.00;;;13.20;99.90;;;;;;5050179;28;20208;-76
2021/09/13 04:26:46;;;;;;;4.97;4.57;;;13.30;99.90;;;;;;5048789;28;20183;-77
2021/09/13 04:29:12;;;;;;;5.20;4.80;;;13.00;99.90;;;;;;5048466;28;20516;-78
2021/09/13 04:31:38;;;;;;;6.57;5.90;;;13.10;99.90;;;;;;5046739;28;20198;-79
2021/09/13 04:34:03;;;;;;;5.23;4.83;;;13.10;99.90;;;;;;5048953;28;20431;-76
2021/09/13 04:36:29;;;;;;;5.70;4.90;;;12.90;99.90;;;;;;5049524;28;20222;-76
2021/09/13 04:38:55;;;;;;;5.20;4.80;;;12.90;99.90;;;;;;5047088;28;20663;-78
2021/09/13 04:41:20;;;;;;;5.67;5.07;;;12.70;99.90;;;;;;5045833;28;20518;-78
2021/09/13 04:43:46;;;;;;;6.37;4.67;;;13.00;99.90;;;;;;5051981;28;20209;-77
2021/09/13 04:46:12;;;;;;;5.57;5.17;;;12.90;99.90;;;;;;5068996;28;20188;-78
2021/09/13 04:48:37;;;;;;;5.60;5.17;;;12.90;99.90;;;;;;5069140;28;20432;-79
2021/09/13 04:51:03;;;;;;;4.90;4.50;;;12.70;99.90;;;;;;5065605;28;20186;-78
2021/09/13 04:53:29;;;;;;;5.50;5.03;;;12.90;99.90;;;;;;5067057;28;20283;-77
2021/09/13 04:55:54;;;;;;;5.83;5.27;;;12.60;99.90;;;;;;5064254;28;20236;-77
2021/09/13 04:58:20;;;;;;;7.03;5.60;;;12.90;99.90;;;;;;5069810;28;20247;-76
2021/09/13 05:00:45;;;;;;;5.90;5.30;;;12.70;99.90;;;;;;5069226;28;20235;-78
2021/09/13 05:03:11;;;;;;;5.30;4.80;;;12.60;99.90;;;;;;5069701;28;20196;-79
2021/09/13 05:05:36;;;;;;;6.13;5.63;;;12.80;99.90;;;;;;5068313;28;20279;-78
2021/09/13 05:08:03;;;;;;;5.60;5.10;;;12.80;99.90;;;;;;5066022;28;20190;-79
2021/09/13 05:10:28;;;;;;;5.70;5.20;;;12.70;99.90;;;;;;5059202;28;20479;-76
2021/09/13 05:12:54;;;;;;;5.30;4.90;;;12.70;99.90;;;;;;5066986;28;20478;-78
2021/09/13 05:15:19;;;;;;;6.20;5.60;;;12.70;99.90;;;;;;5068108;28;20648;-78
2021/09/13 05:17:45;;;;;;;6.70;5.87;;;12.60;99.90;;;;;;5068168;28;20517;-76
2021/09/13 05:20:11;;;;;;;5.87;5.37;;;12.60;99.90;;;;;;5069025;28;20192;-78
2021/09/13 05:22:45;;;;;;;5.93;5.43;;;12.70;99.90;;;;;;5069756;28;20551;-79
2021/09/13 05:25:11;;;;;;;6.80;5.63;;;12.80;99.90;;;;;;5071706;28;20182;-80
2021/09/13 05:27:41;;;;;;;5.33;4.93;;;12.50;99.90;;;;;;5070503;28;20197;-81
2021/09/13 05:30:09;;;;;;;6.80;6.18;;;12.60;99.90;;;;;;5067424;28;20185;-81
2021/09/13 05:32:35;;;;;;;5.60;5.13;;;12.60;99.90;;;;;;5070076;28;20559;-77
2021/09/13 05:35:00;;;;;;;6.27;5.67;;;12.70;99.90;;;;;;5068283;28;20261;-76
2021/09/13 05:37:26;;;;;;;5.93;5.37;;;12.70;99.90;;;;;;5070940;28;20248;-78
2021/09/13 05:39:51;;;;;;;5.97;5.47;;;12.80;99.90;;;;;;5069786;28;20201;-75
2021/09/13 05:42:17;;;;;;;6.70;6.10;;;12.70;99.90;;;;;;5066816;28;20186;-77
2021/09/13 05:44:42;;;;;;;5.90;5.40;;;12.90;99.90;;;;;;5066720;28;20866;-78
2021/09/13 05:47:08;;;;;;;7.40;5.70;;;13.00;99.90;;;;;;5068066;28;20174;-76
2021/09/13 05:49:34;;;;;;;5.70;5.20;;;13.10;99.90;;;;;;5067307;28;20288;-77
2021/09/13 05:51:59;;;;;;;5.63;5.13;;;13.20;99.90;;;;;;5070537;28;20200;-76
2021/09/13 05:54:25;;;;;;;6.70;6.10;;;13.10;99.90;;;;;;5070156;28;20189;-75
2021/09/13 05:56:55;;;;;;;5.40;4.63;;;13.20;99.90;;;;;;5066895;28;20228;-75
2021/09/13 05:59:22;;;;;;;5.80;5.30;;;13.20;99.90;;;;;;5063686;28;20178;-76
2021/09/13 06:01:49;;;;;;;5.33;5.00;;;13.40;99.90;;;;;;5068615;28;20428;-77
2021/09/13 06:04:15;;;;;;;6.00;5.40;;;13.60;99.90;;;;;;5073023;28;20409;-76
2021/09/13 06:06:41;;;;;;;5.80;5.30;;;13.40;99.90;;;;;;5069386;28;20432;-75
2021/09/13 06:09:07;;;;;;;6.23;5.63;;;13.70;99.90;;;;;;5071208;28;20434;-79
2021/09/13 06:11:33;;;;;;;6.00;5.40;;;13.60;99.90;;;;;;5079760;28;20212;-77
2021/09/13 06:13:58;;;;;;;6.93;6.10;;;13.60;99.90;;;;;;5080672;28;20423;-78
2021/09/13 06:16:24;;;;;;;5.20;4.80;;;14.00;99.90;;;;;;5080380;28;20210;-78
2021/09/13 06:18:50;;;;;;;6.10;5.57;;;13.80;99.90;;;;;;5080446;28;20193;-78
2021/09/13 06:21:17;;;;;;;5.47;5.03;;;14.10;99.90;;;;;;5076322;28;20275;-77
2021/09/13 06:23:44;;;;;;;5.63;5.13;;;13.90;99.90;;;;;;5071939;28;20436;-78
2021/09/13 06:26:10;;;;;;;7.37;5.60;;;13.80;99.90;;;;;;5069692;28;20424;-79
2021/09/13 06:28:35;;;;;;;6.93;6.33;;;14.40;99.90;;;;;;5064791;28;20791;-79
2021/09/13 06:31:01;;;;;;;6.57;5.97;;;14.20;99.90;;;;;;5050299;28;20182;-77
2021/09/13 06:33:28;;;;;;;6.80;5.73;;;14.50;99.90;;;;;;5056018;28;20190;-76
2021/09/13 06:35:53;;;;;;;6.17;5.57;;;14.30;99.90;;;;;;5057935;28;20249;-76
2021/09/13 06:38:19;;;;;;;5.90;5.40;;;14.60;99.90;;;;;;5048022;28;20436;-77
2021/09/13 06:40:44;;;;;;;5.70;5.20;;;14.80;99.90;;;;;;5045023;28;20209;-78
2021/09/13 06:43:14;;;;;;;5.60;5.10;;;14.60;99.90;;;;;;5059384;28;20648;-76
2021/09/13 06:45:41;;;;;;;4.93;4.60;;;14.80;99.90;;;;;;5061174;28;20234;-78
2021/09/13 06:48:09;;;;;;;5.37;4.87;;;14.80;99.90;;;;;;5069057;28;20490;-78
2021/09/13 06:50:37;;;;;;;5.17;4.83;;;15.30;99.90;;;;;;5069070;28;20432;-78
2021/09/13 06:53:03;;;;;;;5.93;4.93;;;15.00;99.90;;;;;;5065795;28;20432;-76
2021/09/13 06:55:29;;;;;;;9.00;8.20;;;15.30;99.90;;;;;;5064192;28;20493;-79
2021/09/13 06:57:55;;;;;;;6.23;5.73;;;15.40;99.90;;;;;;5067297;28;20439;-77
2021/09/13 07:00:22;;;;;;;5.67;5.27;;;15.80;99.90;;;;;;5067418;28;20820;-78
2021/09/13 07:02:48;;;;;;;5.80;5.40;;;15.80;99.90;;;;;;5062979;28;20439;-77
2021/09/13 07:05:14;;;;;;;5.97;5.40;;;16.00;99.90;;;;;;5064171;28;20432;-76
2021/09/13 07:07:40;;;;;;;6.50;6.00;;;16.20;99.90;;;;;;5063565;28;21117;-76
2021/09/13 07:10:08;;;;;;;7.23;6.63;;;16.30;99.90;;;;;;5066540;28;20515;-76
2021/09/13 07:12:35;;;;;;;6.37;5.87;;;16.60;99.90;;;;;;5055709;28;20191;-75
2021/09/13 07:15:01;;;;;;;6.70;6.00;;;16.60;99.90;;;;;;5042600;28;20963;-79
2021/09/13 07:17:27;;;;;;;6.13;5.70;;;16.90;99.90;;;;;;5063833;28;20488;-79
2021/09/13 07:19:53;;;;;;;6.07;5.57;;;16.90;99.90;;;;;;5068528;28;20424;-78
2021/09/13 07:22:19;;;;;;;5.43;4.93;;;17.50;99.90;;;;;;5070380;28;20227;-78
2021/09/13 07:24:45;;;;;;;5.30;4.90;;;17.30;99.90;;;;;;5069432;28;21041;-78
2021/09/13 07:27:11;;;;;;;5.50;5.00;;;17.50;99.90;;;;;;5068176;28;20519;-77
2021/09/13 07:29:38;;;;;;;5.63;5.13;;;17.60;99.90;;;;;;5069564;28;20533;-77
2021/09/13 07:32:04;;;;;;;4.80;4.40;;;17.70;99.90;;;;;;5068026;28;20449;-77
2021/09/13 07:34:30;;;;;;;4.83;4.43;;;18.00;99.90;;;;;;5062653;28;20952;-76
2021/09/13 07:36:56;;;;;;;5.07;4.57;;;18.10;99.90;;;;;;5065546;28;20484;-77
2021/09/13 07:39:27;;;;;;;4.43;4.13;;;18.30;99.90;;;;;;5069193;28;20420;-76
2021/09/13 07:41:53;;;;;;;5.10;4.70;;;18.20;99.90;;;;;;5068743;28;20436;-75
2021/09/13 07:44:19;;;;;;;4.87;4.47;;;18.80;99.90;;;;;;5057309;28;20476;-79
2021/09/13 07:46:44;;;;;;;4.73;4.33;;;18.50;99.90;;;;;;5030188;28;20796;-77
2021/09/13 07:49:10;;;;;;;5.70;5.10;;;18.80;99.90;;;;;;5039072;28;20220;-78
2021/09/13 07:51:36;;;;;;;5.33;4.93;;;18.70;99.90;;;;;;5051270;28;20227;-79
2021/09/13 07:54:02;;;;;;;4.17;3.87;;;18.80;99.90;;;;;;5051566;28;20593;-81
2021/09/13 07:56:28;;;;;;;4.50;4.10;;;19.20;99.90;;;;;;5049345;28;20477;-77
2021/09/13 07:58:54;;;;;;;5.83;5.33;;;19.20;99.90;;;;;;5047509;28;20442;-78
2021/09/13 08:01:20;;;;;;;4.30;4.00;;;19.30;99.90;;;;;;5048365;28;20531;-76
2021/09/13 08:03:46;;;;;;;3.90;3.60;;;19.30;99.90;;;;;;5046574;28;20448;-76
2021/09/13 08:06:11;;;;;;;4.30;4.00;;;19.10;99.90;;;;;;5050188;28;20465;-76
2021/09/13 08:08:37;;;;;;;4.83;4.43;;;19.50;99.90;;;;;;5049567;28;20559;-75
2021/09/13 08:11:04;;;;;;;5.13;4.80;;;19.50;99.90;;;;;;5046224;28;20189;-76
2021/09/13 08:13:29;;;;;;;4.33;3.93;;;19.60;99.90;;;;;;5045771;28;20213;-76
2021/09/13 08:15:55;;;;;;;4.23;3.57;;;19.80;99.90;;;;;;5046655;28;20523;-76
2021/09/13 08:18:20;;;;;;;3.80;3.50;;;19.80;99.90;;;;;;5046998;28;20197;-76
2021/09/13 08:20:46;;;;;;;4.20;3.90;;;19.70;99.90;;;;;;5046597;28;20229;-78
2021/09/13 08:23:12;;;;;;;4.10;3.80;;;19.80;99.90;;;;;;5046471;28;20197;-77
2021/09/13 08:25:38;;;;;;;4.30;4.00;;;20.00;99.90;;;;;;5048161;28;20197;-77
2021/09/13 08:28:03;;;;;;;3.73;3.43;;;20.50;99.90;;;;;;5043381;28;21094;-78
2021/09/13 08:30:29;;;;;;;4.30;3.90;;;20.50;99.90;;;;;;5034992;28;20566;-78
2021/09/13 08:32:54;;;;;;;4.33;3.53;;;20.60;99.90;;;;;;5037462;28;20524;-76
2021/09/13 08:35:20;;;;;;;4.20;3.87;;;21.10;97.90;;;;;;5032188;28;20516;-77
2021/09/13 08:37:46;;;;;;;4.47;4.17;;;20.90;96.70;;;;;;5047099;28;20213;-75
2021/09/13 08:40:12;;;;;;;4.23;3.93;;;21.70;94.50;;;;;;5045032;28;20694;-76
2021/09/13 08:42:48;;;;;;;4.70;4.30;;;21.80;92.30;;;;;;5045273;28;20487;-78
2021/09/13 08:46:04;;;;;;;3.80;3.50;;;21.90;93.50;;;;;;5059260;28;20259;-75
2021/09/13 08:48:12;;;;;;;4.20;3.63;;;22.70;91.40;;;;;;5052743;28;20444;-76
2021/09/13 08:50:53;;;;;;;4.80;4.40;;;23.20;88.60;;;;;;5065924;28;20527;-75
2021/09/13 08:53:32;;;;;;;5.73;5.33;;;24.80;88.40;;;;;;5064722;28;20423;-78
2021/09/13 08:55:59;;;;;;;5.57;5.07;;;26.50;67.70;;;;;;5067122;28;20475;-76
2021/09/13 08:58:25;;;;;;;4.67;4.37;;;28.50;61.20;;;;;;5068338;28;20781;-77
2021/09/13 09:00:52;;;;;;;5.53;5.03;;;29.40;52.80;;;;;;5066702;28;20445;-76
2021/09/13 09:03:18;;;;;;;5.37;4.50;;;30.30;49.80;;;;;;5064387;28;20180;-76
2021/09/13 09:05:47;;;;;;;4.10;3.80;;;31.60;50.00;;;;;;5063560;28;21011;-76
2021/09/13 09:08:30;;;;;;;4.50;4.10;;;33.20;47.80;;;;;;5067536;28;20455;-78
2021/09/13 09:11:02;;;;;;;4.30;4.00;;;34.70;42.00;;;;;;5066580;28;20453;-78
2021/09/13 09:13:38;;;;;;;5.50;5.10;;;35.90;38.20;;;;;;5067254;28;20419;-77
2021/09/13 09:16:05;;;;;;;4.57;4.27;;;36.80;35.30;;;;;;5064067;28;20490;-76
2021/09/13 09:18:40;;;;;;;4.23;3.93;;;37.60;34.30;;;;;;5063842;28;20828;-72
2021/09/13 09:21:08;;;;;;;4.67;4.37;;;38.20;31.70;;;;;;5066962;28;20841;-72
2021/09/13 09:23:54;;;;;;;4.70;4.40;;;38.90;32.20;;;;;;5067050;28;20484;-72
2021/09/13 09:26:20;;;;;;;4.40;4.10;;;39.20;28.70;;;;;;5063246;28;20436;-72
2021/09/13 09:28:46;;;;;;;6.03;5.63;;;39.40;29.80;;;;;;5062090;28;20521;-72
2021/09/13 09:31:11;;;;;;;4.90;3.90;;;39.80;29.40;;;;;;5064246;28;20178;-71
2021/09/13 09:33:38;;;;;;;4.30;4.10;;;40.20;28.10;;;;;;5053532;28;20448;-72
2021/09/13 09:36:11;;;;;;;4.97;4.47;;;40.80;28.30;;;;;;5045619;28;20225;-73
2021/09/13 09:38:43;;;;;;;5.80;5.40;;;41.00;27.10;;;;;;5044712;28;20515;-74
2021/09/13 09:41:18;;;;;;;5.40;5.10;;;41.10;26.10;;;;;;5042384;28;20983;-73
2021/09/13 09:43:49;;;;;;;4.70;4.40;;;40.40;26.20;;;;;;5055858;28;20463;-72
2021/09/13 09:46:15;;;;;;;5.97;5.03;;;40.50;28.00;;;;;;5061625;28;20527;-74
2021/09/13 09:48:41;;;;;;;5.43;5.13;;;41.00;26.80;;;;;;5061887;28;20495;-73
2021/09/13 09:51:27;;;;;;;5.20;4.80;;;41.20;27.10;;;;;;5064222;28;20193;-74
2021/09/13 09:53:53;;;;;;;5.00;4.70;;;41.50;26.70;;;;;;5064925;28;20649;-72
2021/09/13 09:56:18;;;;;;;4.30;4.10;;;41.70;25.50;;;;;;5066740;28;20484;-73
2021/09/13 09:59:02;;;;;;;4.00;3.70;;;42.10;25.70;;;;;;5058084;28;20200;-72
2021/09/13 10:01:37;;;;;;;4.83;4.53;;;42.40;25.40;;;;;;5055453;28;20276;-73
2021/09/13 10:04:22;;;;;;;4.83;4.33;;;42.60;24.80;;;;;;5065659;28;20464;-73
2021/09/13 10:06:59;;;;;;;3.90;3.70;;;42.70;25.00;;;;;;5066436;28;20423;-73
2021/09/13 10:09:27;;;;;;;4.50;4.10;;;43.20;25.20;;;;;;5066600;28;20485;-73
2021/09/13 10:11:55;;;;;;;5.10;4.80;;;43.90;25.20;;;;;;5043661;28;20827;-74
2021/09/13 10:14:24;;;;;;;4.73;4.40;;;44.50;24.10;;;;;;5061800;28;20579;-73
2021/09/13 10:16:50;;;;;;;5.70;5.30;;;45.20;23.50;;;;;;5063316;28;20427;-71
2021/09/13 10:19:18;;;;;;;4.77;4.30;;;45.50;22.90;;;;;;5066662;28;20446;-74
2021/09/13 10:21:44;;;;;;;4.27;3.97;;;45.10;22.70;;;;;;5064854;28;20847;-71
2021/09/13 10:24:31;;;;;;;5.60;4.43;;;44.90;22.80;;;;;;5064055;28;20460;-71
2021/09/13 10:27:09;;;;;;;4.80;3.63;;;44.00;22.70;;;;;;5061846;28;20229;-74
2021/09/13 10:29:35;;;;;;;4.33;4.10;;;43.00;24.20;;;;;;5062106;28;20776;-73
2021/09/13 10:32:11;;;;;;;4.40;4.00;;;43.00;24.70;;;;;;5066259;28;20475;-72
2021/09/13 10:34:40;;;;;;;5.20;4.90;;;43.40;24.40;;;;;;5066485;28;20420;-72
2021/09/13 10:37:10;;;;;;;5.70;5.23;;;43.80;24.00;;;;;;5061874;28;20497;-71
2021/09/13 10:39:57;;;;;;;4.83;4.53;;;43.90;23.80;;;;;;5062779;28;20798;-72
2021/09/13 10:42:27;;;;;;;4.03;3.83;;;43.60;24.30;;;;;;5065865;28;20436;-71
2021/09/13 10:45:06;;;;;;;5.07;4.77;;;44.30;23.40;;;;;;5064212;28;20475;-72
2021/09/13 10:47:33;;;;;;;4.93;4.53;;;44.60;22.70;;;;;;5064789;28;20480;-72
2021/09/13 10:50:23;;;;;;;4.53;4.23;;;44.00;23.40;;;;;;5061587;28;20525;-72
2021/09/13 10:52:51;;;;;;;4.90;4.40;;;43.80;24.80;;;;;;5061540;28;20428;-70
2021/09/13 10:55:19;;;;;;;5.43;5.03;;;43.00;24.10;;;;;;5069854;28;20419;-73
2021/09/13 10:57:52;;;;;;;5.47;5.13;;;42.20;24.40;;;;;;5067577;28;20440;-74
2021/09/13 11:00:39;;;;;;;5.67;5.37;;;41.70;26.40;;;;;;5069001;28;20436;-74
2021/09/13 11:03:29;;;;;;;5.33;5.00;;;41.90;25.30;;;;;;5073891;28;20533;-71
2021/09/13 11:06:15;;;;;;;5.73;5.20;;;42.80;25.30;;;;;;5072280;28;20960;-72
2021/09/13 11:09:09;;;;;;;5.87;5.47;;;43.90;24.50;;;;;;5066446;28;20973;-73
2021/09/13 11:11:41;;;;;;;5.23;4.90;;;44.50;23.40;;;;;;5066556;28;20531;-73
2021/09/13 11:14:21;;;;;;;5.70;5.30;;;44.90;23.40;;;;;;5068027;28;20452;-73
2021/09/13 11:16:47;;;;;;;5.43;5.03;;;44.00;22.00;;;;;;5065331;28;21365;-74
2021/09/13 11:19:14;;;;;;;5.63;5.13;;;41.90;24.00;;;;;;5065261;28;20519;-72
2021/09/13 11:21:44;;;;;;;5.60;5.20;;;40.80;26.10;;;;;;5062326;28;20432;-73
2021/09/13 11:24:18;;;;;;;5.67;5.23;;;40.70;26.70;;;;;;5069128;28;21265;-71
2021/09/13 11:26:54;;;;;;;4.33;4.03;;;41.20;25.80;;;;;;5067668;28;20537;-73
2021/09/13 11:29:31;;;;;;;4.17;3.87;;;42.30;25.00;;;;;;5067421;28;20432;-73
2021/09/13 11:32:06;;;;;;;4.97;4.60;;;43.50;24.30;;;;;;5066042;28;20432;-74
2021/09/13 11:34:36;;;;;;;4.40;4.17;;;44.60;23.20;;;;;;5069812;28;20431;-72
2021/09/13 11:37:18;;;;;;;4.90;4.40;;;44.70;23.40;;;;;;5068343;28;20742;-74
2021/09/13 11:39:51;;;;;;;4.60;4.30;;;43.80;23.20;;;;;;5065339;28;20861;-71
2021/09/13 11:42:20;;;;;;;5.23;4.83;;;43.30;24.20;;;;;;5066297;28;20462;-72
2021/09/13 11:44:55;;;;;;;4.60;4.20;;;42.70;23.50;;;;;;5067801;28;20471;-74
2021/09/13 11:47:23;;;;;;;5.47;5.07;;;41.20;25.70;;;;;;5069386;28;20478;-74
2021/09/13 11:49:58;;;;;;;5.27;4.80;;;41.20;25.70;;;;;;5064887;28;20431;-73
2021/09/13 11:52:29;;;;;;;5.00;4.60;;;40.70;25.60;;;;;;5064748;28;20807;-73
2021/09/13 11:55:01;;;;;;;4.13;3.87;;;39.10;26.20;;;;;;5064161;28;20417;-72
2021/09/13 11:57:48;;;;;;;4.50;4.20;;;37.60;28.60;;;;;;5064410;28;20441;-73
2021/09/13 12:00:33;;;;;;;4.40;4.20;;;35.90;30.00;;;;;;5056325;28;20518;-72
2021/09/13 12:03:02;;;;;;;4.60;4.30;;;34.80;32.00;;;;;;5064024;28;21160;-72
2021/09/13 12:05:32;;;;;;;4.80;4.50;;;33.90;34.20;;;;;;5054428;28;20466;-72
2021/09/13 12:08:00;;;;;;;5.13;4.67;;;33.40;36.20;;;;;;5046909;28;20971;-72
2021/09/13 12:10:28;;;;;;;5.27;4.47;;;34.60;37.10;;;;;;5048627;28;20523;-71
2021/09/13 12:13:00;;;;;;;4.50;4.10;;;36.00;33.80;;;;;;5044124;28;20434;-72
2021/09/13 12:15:30;;;;;;;4.70;4.07;;;37.00;31.80;;;;;;5047098;28;20451;-72
2021/09/13 12:17:56;;;;;;;4.80;4.50;;;37.60;30.00;;;;;;5054019;28;20971;-73
2021/09/13 12:20:32;;;;;;;4.77;4.47;;;36.70;29.80;;;;;;5067515;28;20435;-74
2021/09/13 12:22:59;;;;;;;3.87;3.57;;;36.10;31.60;;;;;;5063465;28;20185;-74
2021/09/13 12:25:27;;;;;;;4.67;4.37;;;36.80;31.10;;;;;;5064245;28;20997;-73
2021/09/13 12:27:59;;;;;;;4.00;3.70;;;36.50;30.90;;;;;;5065293;28;20478;-73
2021/09/13 12:30:31;;;;;;;4.23;3.93;;;36.70;32.30;;;;;;5057077;28;20433;-73
2021/09/13 12:32:59;;;;;;;3.50;3.30;;;38.40;31.00;;;;;;5059247;28;20444;-74
2021/09/13 12:35:52;;;;;;;4.43;4.13;;;40.40;28.60;;;;;;5066788;28;20424;-74
2021/09/13 12:38:22;;;;;;;5.43;4.03;;;42.10;26.50;;;;;;5059317;28;20515;-72
2021/09/13 12:40:58;;;;;;;3.80;3.53;;;43.50;25.00;;;;;;5066353;28;20439;-72
2021/09/13 12:43:30;;;;;;;3.47;3.27;;;44.50;23.10;;;;;;5067840;28;20470;-71
2021/09/13 12:46:09;;;;;;;3.80;3.43;;;45.20;22.70;;;;;;5063040;28;20463;-73
2021/09/13 12:48:44;;;;;;;3.80;3.60;;;45.50;21.60;;;;;;5067330;28;20447;-74
2021/09/13 12:51:13;;;;;;;3.50;3.30;;;45.90;20.80;;;;;;5073259;28;20412;-73
2021/09/13 12:53:39;;;;;;;3.90;3.60;;;45.80;21.10;;;;;;5072251;28;20688;-71
2021/09/13 12:56:15;;;;;;;4.07;3.13;;;46.30;20.80;;;;;;5068163;28;20458;-70
2021/09/13 12:58:43;;;;;;;3.80;3.60;;;47.00;20.40;;;;;;5069271;28;20181;-73